Time;durP1;ratioP1;P1;durP2;ratioP2;P2;SDS_P1;SDS_P2;PMS_P1;PMS_P2;Temp;Humidity;BMP_temperature;BMP_pressure;BME280_temperature;BME280_humidity;BME280_pressure;Samples;Min_cycle;Max_cycle;Signal;HPM_P1;HPM_P2
2023/12/16 00:02:16;;;;;;;10.60;8.33;;;6.50;94.60;;;8.25;64.46;99856.50;5032182;28;20045;-49
2023/12/16 00:04:44;;;;;;;12.50;7.80;;;6.50;94.30;;;8.25;64.19;99851.19;5032370;28;20042;-49
2023/12/16 00:07:12;;;;;;;10.00;6.90;;;6.50;94.20;;;8.21;64.50;99850.53;5032012;28;20045;-50
2023/12/16 00:09:40;;;;;;;9.20;6.33;;;6.30;94.30;;;8.18;64.30;99849.84;5032266;28;20052;-52
2023/12/16 00:12:08;;;;;;;11.20;7.13;;;6.30;94.70;;;8.15;64.43;99848.25;5031899;28;20056;-49
2023/12/16 00:14:37;;;;;;;12.03;6.97;;;6.20;95.20;;;8.14;64.43;99837.72;5029908;28;20042;-50
2023/12/16 00:17:05;;;;;;;9.10;6.47;;;6.20;95.30;;;8.12;64.57;99844.91;5030372;28;20050;-51
2023/12/16 00:19:32;;;;;;;10.80;6.87;;;6.20;95.60;;;8.12;64.79;99845.75;5032057;28;20045;-51
2023/12/16 00:22:00;;;;;;;10.10;6.30;;;6.20;95.40;;;8.11;64.38;99836.13;5031835;28;20500;-51
2023/12/16 00:24:28;;;;;;;8.63;5.77;;;6.20;94.90;;;8.09;64.47;99832.69;5030541;28;20052;-48
2023/12/16 00:26:56;;;;;;;8.90;6.80;;;6.20;95.00;;;8.07;64.35;99842.56;5023383;28;20041;-52
2023/12/16 00:29:23;;;;;;;13.37;6.87;;;6.20;95.50;;;8.08;64.56;99839.81;5031351;28;20536;-51
2023/12/16 00:31:51;;;;;;;9.87;6.13;;;6.20;95.30;;;8.06;64.45;99836.41;5029995;28;20049;-51
2023/12/16 00:34:18;;;;;;;9.37;6.60;;;6.10;95.40;;;8.03;64.56;99833.06;5031406;28;20053;-52
2023/12/16 00:36:48;;;;;;;10.77;6.43;;;6.10;95.90;;;8.02;64.70;99837.50;5031124;28;20413;-50
2023/12/16 00:39:15;;;;;;;13.47;6.53;;;6.10;96.20;;;8.02;64.50;99845.47;5031617;28;20061;-50
2023/12/16 00:41:43;;;;;;;40.60;19.77;;;6.10;96.30;;;8.06;64.45;99847.00;5031455;28;20060;-49
2023/12/16 00:44:11;;;;;;;42.50;20.73;;;6.20;95.30;;;8.03;64.38;99841.03;5030200;28;20052;-52
2023/12/16 00:46:38;;;;;;;27.17;13.50;;;6.20;95.30;;;8.04;64.59;99848.03;5030083;28;20049;-49
2023/12/16 00:49:06;;;;;;;12.30;7.93;;;6.20;95.20;;;8.02;64.53;99858.72;5030491;28;20072;-49
2023/12/16 00:51:34;;;;;;;9.37;7.67;;;6.10;95.30;;;8.04;64.63;99861.28;5031292;28;20587;-51
2023/12/16 00:54:01;;;;;;;10.30;6.17;;;6.20;95.70;;;8.08;64.49;99862.81;5031277;28;20056;-52
2023/12/16 00:56:29;;;;;;;9.57;5.93;;;6.30;95.20;;;8.11;64.46;99869.75;5030813;28;20041;-50
2023/12/16 00:58:56;;;;;;;10.07;6.50;;;6.30;94.20;;;8.13;64.64;99873.19;5031207;28;20042;-51
2023/12/16 01:01:24;;;;;;;9.63;6.10;;;6.30;94.10;;;8.14;64.33;99872.22;5031188;28;20042;-52
2023/12/16 01:03:52;;;;;;;8.33;5.83;;;6.30;94.10;;;8.12;64.49;99866.16;5031317;28;20042;-52
2023/12/16 01:06:20;;;;;;;10.90;7.40;;;6.30;94.00;;;8.11;64.50;99872.41;5030891;28;20052;-53
2023/12/16 01:08:47;;;;;;;16.17;9.73;;;6.30;94.50;;;8.12;64.59;99882.91;5031091;28;20046;-51
2023/12/16 01:11:16;;;;;;;16.67;10.33;;;6.30;94.80;;;8.12;64.54;99884.72;5029616;28;20049;-49
2023/12/16 01:13:43;;;;;;;13.70;8.07;;;6.30;94.40;;;8.12;64.49;99887.38;5031058;28;20045;-49
2023/12/16 01:16:11;;;;;;;11.13;6.90;;;6.30;94.80;;;8.14;64.62;99888.13;5030632;28;20045;-53
2023/12/16 01:18:38;;;;;;;13.77;7.03;;;6.30;95.00;;;8.14;64.70;99886.31;5030626;28;20500;-49
2023/12/16 01:21:07;;;;;;;11.27;6.37;;;6.30;95.20;;;8.16;64.51;99887.13;5030734;28;20045;-47
2023/12/16 01:23:36;;;;;;;14.30;6.90;;;6.40;95.30;;;8.20;64.61;99896.59;5029470;28;20528;-50
2023/12/16 01:26:04;;;;;;;13.97;7.53;;;6.40;94.30;;;8.20;64.63;99891.28;5031264;28;20421;-51
2023/12/16 01:28:32;;;;;;;10.20;6.30;;;6.40;94.70;;;8.20;64.41;99888.63;5030382;28;20041;-49
2023/12/16 01:31:00;;;;;;;9.27;6.20;;;6.50;94.00;;;8.21;64.24;99886.84;5030603;28;20045;-49
2023/12/16 01:33:28;;;;;;;11.03;6.37;;;6.40;94.40;;;8.20;64.33;99888.63;5030681;28;20045;-49
2023/12/16 01:35:56;;;;;;;8.07;6.43;;;6.40;94.30;;;8.20;64.35;99890.41;5030764;28;20049;-50
2023/12/16 01:38:24;;;;;;;10.23;6.87;;;6.30;94.30;;;8.15;64.28;99873.94;5030344;28;20505;-51
2023/12/16 01:40:52;;;;;;;9.43;6.13;;;6.20;94.50;;;8.10;64.39;99868.88;5030529;28;20394;-53
2023/12/16 01:43:19;;;;;;;9.73;6.47;;;6.20;95.20;;;8.09;64.41;99867.19;5030585;28;20513;-52
2023/12/16 01:45:48;;;;;;;8.43;5.93;;;6.20;95.10;;;8.05;64.36;99871.81;5028016;28;20065;-49
2023/12/16 01:48:16;;;;;;;8.73;5.40;;;6.10;95.40;;;8.04;64.45;99871.91;5028895;28;20050;-48
2023/12/16 01:50:43;;;;;;;8.20;5.73;;;6.10;94.90;;;8.02;64.38;99872.00;5029194;28;20127;-50
2023/12/16 01:53:11;;;;;;;8.87;5.50;;;6.10;94.60;;;8.00;64.52;99865.06;5029438;28;20048;-50
2023/12/16 01:55:39;;;;;;;7.57;5.53;;;6.00;94.70;;;7.94;64.22;99868.94;5030986;28;20045;-50
2023/12/16 01:58:07;;;;;;;8.53;5.73;;;6.00;94.90;;;7.89;64.29;99879.00;5030320;28;20053;-49
2023/12/16 02:00:35;;;;;;;8.97;5.93;;;5.90;95.30;;;7.87;64.61;99880.84;5030318;28;20100;-52
2023/12/16 02:03:03;;;;;;;10.07;5.77;;;5.90;95.40;;;7.83;64.18;99884.63;5029302;28;20064;-51
2023/12/16 02:05:31;;;;;;;13.57;5.67;;;5.90;94.90;;;7.79;64.41;99889.28;5030561;28;20504;-52
2023/12/16 02:07:58;;;;;;;9.50;5.90;;;5.80;95.30;;;7.75;64.47;99885.06;5030134;28;20520;-50
2023/12/16 02:10:26;;;;;;;7.37;5.50;;;5.70;95.30;;;7.73;64.35;99884.31;5029266;28;20102;-49
2023/12/16 02:12:53;;;;;;;7.10;4.63;;;5.70;95.80;;;7.72;64.31;99879.13;5028862;28;20045;-52
2023/12/16 02:15:21;;;;;;;8.13;5.13;;;5.80;95.60;;;7.68;64.41;99884.56;5030508;28;20052;-52
2023/12/16 02:17:49;;;;;;;7.00;4.77;;;5.70;95.50;;;7.64;64.33;99888.34;5029859;28;20057;-49
2023/12/16 02:20:16;;;;;;;7.87;5.33;;;5.70;95.60;;;7.64;64.40;99882.19;5030280;28;20041;-53
2023/12/16 02:22:46;;;;;;;7.50;4.77;;;5.70;95.90;;;7.63;64.79;99891.09;5030137;28;20093;-50
2023/12/16 02:25:15;;;;;;;8.43;5.53;;;5.70;95.20;;;7.62;64.74;99894.69;5030162;28;20501;-51
2023/12/16 02:27:45;;;;;;;7.77;5.67;;;5.70;95.80;;;7.63;64.63;99896.38;5029862;28;20053;-51
2023/12/16 02:30:13;;;;;;;7.77;5.37;;;5.70;95.50;;;7.62;64.41;99900.00;5032924;28;20042;-51
2023/12/16 02:32:43;;;;;;;6.70;5.00;;;5.70;95.10;;;7.65;64.72;99905.09;5033000;28;20048;-48
2023/12/16 02:35:11;;;;;;;7.07;4.60;;;5.70;95.20;;;7.66;64.44;99910.31;5026593;28;20280;-51
2023/12/16 02:37:39;;;;;;;6.17;4.50;;;5.80;94.80;;;7.69;64.71;99906.63;5033555;28;20512;-50
2023/12/16 02:40:07;;;;;;;7.83;5.37;;;5.80;94.70;;;7.71;64.19;99894.16;5034263;28;20057;-51
2023/12/16 02:42:35;;;;;;;8.97;5.07;;;5.90;94.50;;;7.72;64.22;99893.22;5033849;28;20049;-50
2023/12/16 02:45:04;;;;;;;6.47;4.73;;;5.90;94.00;;;7.71;64.38;99888.00;5032612;28;20057;-48
2023/12/16 02:47:31;;;;;;;9.17;4.50;;;5.80;94.30;;;7.72;64.37;99895.88;5033479;28;20041;-48
2023/12/16 02:50:00;;;;;;;7.73;4.73;;;5.90;95.10;;;7.74;64.30;99899.28;5031737;28;20045;-49
2023/12/16 02:52:27;;;;;;;8.77;5.73;;;5.90;94.50;;;7.75;64.44;99900.13;5033644;28;20037;-50
2023/12/16 02:54:55;;;;;;;7.87;5.13;;;5.90;95.10;;;7.76;64.25;99894.75;5033541;28;20520;-49
2023/12/16 02:57:23;;;;;;;7.73;5.20;;;5.90;94.60;;;7.78;64.40;99899.97;5032124;28;20563;-52
2023/12/16 02:59:51;;;;;;;7.23;4.67;;;5.90;94.30;;;7.75;64.52;99895.66;5033250;28;20409;-52
2023/12/16 03:02:18;;;;;;;8.50;4.87;;;5.80;94.00;;;7.73;64.40;99899.38;5033326;28;20037;-49
2023/12/16 03:04:46;;;;;;;7.53;4.83;;;5.80;95.00;;;7.72;64.36;99913.59;5033633;28;20049;-49
2023/12/16 03:07:14;;;;;;;8.50;5.57;;;5.80;95.10;;;7.74;64.50;99903.75;5033180;28;20421;-50
2023/12/16 03:09:41;;;;;;;6.70;4.80;;;5.80;95.10;;;7.76;64.57;99918.59;5033266;28;20037;-48
2023/12/16 03:12:09;;;;;;;9.00;5.27;;;5.90;94.50;;;7.77;64.52;99912.34;5033187;28;20092;-50
2023/12/16 03:14:39;;;;;;;9.17;5.13;;;5.90;94.50;;;7.78;64.36;99913.22;5033326;28;20516;-52
2023/12/16 03:17:08;;;;;;;6.60;4.53;;;5.90;94.30;;;7.77;64.30;99909.69;5031502;28;20041;-49
2023/12/16 03:19:35;;;;;;;8.43;5.47;;;5.90;94.40;;;7.77;64.25;99912.34;5033247;28;20049;-49
2023/12/16 03:22:04;;;;;;;9.20;4.47;;;5.90;94.20;;;7.78;64.29;99922.03;5033058;28;20413;-47
2023/12/16 03:24:31;;;;;;;8.37;5.10;;;5.90;93.70;;;7.77;64.26;99920.31;5033381;28;20045;-48
2023/12/16 03:26:59;;;;;;;6.27;4.13;;;5.90;94.20;;;7.79;64.12;99917.56;5032779;28;20041;-47
2023/12/16 03:29:28;;;;;;;7.00;4.50;;;6.00;93.90;;;7.81;63.88;99923.63;5032820;28;20052;-51
2023/12/16 03:31:56;;;;;;;6.97;5.93;;;6.00;93.50;;;7.81;64.18;99915.69;5032390;28;20046;-52
2023/12/16 03:34:24;;;;;;;7.33;4.50;;;6.00;93.20;;;7.77;64.17;99912.34;5032882;28;20041;-48
2023/12/16 03:36:52;;;;;;;7.13;4.57;;;5.90;93.80;;;7.78;64.34;99913.22;5032466;28;20041;-49
2023/12/16 03:39:20;;;;;;;8.53;4.43;;;5.90;94.20;;;7.75;64.02;99914.22;5032722;28;20048;-48
2023/12/16 03:41:48;;;;;;;8.73;5.47;;;5.90;94.00;;;7.75;64.03;99913.38;5032683;28;20425;-48
2023/12/16 03:44:15;;;;;;;7.53;4.77;;;5.90;94.10;;;7.75;64.22;99916.03;5023713;28;20049;-49
2023/12/16 03:46:43;;;;;;;7.50;4.70;;;5.90;94.10;;;7.75;64.17;99913.38;5032457;28;20420;-49
2023/12/16 03:49:10;;;;;;;8.10;4.40;;;5.90;94.20;;;7.75;64.27;99913.38;5031759;28;20053;-47
2023/12/16 03:51:38;;;;;;;5.60;4.27;;;5.90;94.00;;;7.77;64.09;99911.50;5032289;28;20041;-47
2023/12/16 03:54:05;;;;;;;6.20;4.00;;;5.90;93.70;;;7.78;64.18;99913.22;5032340;28;20558;-48
2023/12/16 03:56:33;;;;;;;10.07;4.60;;;5.90;93.50;;;7.79;64.36;99909.63;5032353;28;20037;-47
2023/12/16 03:59:01;;;;;;;6.43;4.43;;;6.00;93.20;;;7.78;64.26;99911.41;5032381;28;20046;-49
2023/12/16 04:01:28;;;;;;;6.10;4.87;;;5.90;93.40;;;7.78;64.02;99908.75;5032089;28;20041;-49
2023/12/16 04:03:56;;;;;;;7.57;4.47;;;5.90;93.00;;;7.75;64.12;99903.63;5032194;28;20056;-50
2023/12/16 04:06:24;;;;;;;7.30;4.30;;;5.90;93.10;;;7.73;64.10;99902.88;5032054;28;20046;-51
2023/12/16 04:08:51;;;;;;;6.97;4.40;;;5.90;93.10;;;7.72;64.03;99908.28;5032249;28;20049;-52
2023/12/16 04:11:19;;;;;;;7.43;4.87;;;5.90;93.20;;;7.71;63.88;99901.25;5031912;28;20072;-51
2023/12/16 04:13:48;;;;;;;6.97;4.90;;;5.90;93.30;;;7.69;64.18;99912.78;5031206;28;20056;-51
2023/12/16 04:16:16;;;;;;;5.57;4.23;;;5.80;93.20;;;7.68;64.28;99910.25;5032078;28;20056;-50
2023/12/16 04:18:44;;;;;;;6.10;4.00;;;5.80;93.20;;;7.66;63.96;99915.63;5031948;28;20037;-49
2023/12/16 04:21:11;;;;;;;7.80;5.07;;;5.80;92.70;;;7.62;63.91;99911.44;5031356;28;20049;-48
2023/12/16 04:23:39;;;;;;;5.53;3.80;;;5.80;92.80;;;7.61;64.19;99907.06;5032060;28;20045;-51
2023/12/16 04:26:07;;;;;;;6.33;3.93;;;5.80;92.60;;;7.60;64.15;99899.19;5032003;28;20531;-52
2023/12/16 04:28:35;;;;;;;6.63;3.73;;;5.80;92.80;;;7.60;63.99;99912.44;5031550;28;20053;-49
2023/12/16 04:31:03;;;;;;;7.10;4.37;;;5.80;92.80;;;7.63;64.13;99920.25;5031455;28;20068;-51
2023/12/16 04:33:30;;;;;;;7.30;4.23;;;5.80;92.70;;;7.62;64.01;99915.91;5031956;28;20053;-50
2023/12/16 04:35:58;;;;;;;7.10;4.37;;;5.80;92.50;;;7.61;64.15;99912.38;5031410;28;20038;-51
2023/12/16 04:38:26;;;;;;;6.27;4.23;;;5.80;92.90;;;7.61;64.44;99912.38;5031460;28;20045;-49
2023/12/16 04:40:53;;;;;;;5.60;3.53;;;5.80;93.20;;;7.60;64.29;99913.34;5031643;28;20045;-53
2023/12/16 04:43:21;;;;;;;7.20;4.43;;;5.80;92.40;;;7.60;64.21;99909.81;5031628;28;20048;-52
2023/12/16 04:45:49;;;;;;;6.93;4.27;;;5.70;93.10;;;7.61;64.14;99917.69;5027924;28;20117;-53
2023/12/16 04:48:16;;;;;;;6.37;3.90;;;5.80;93.10;;;7.60;63.99;99915.97;5031267;28;20204;-53
2023/12/16 04:50:44;;;;;;;10.30;5.20;;;5.70;92.40;;;7.58;64.14;99907.25;5030788;28;20060;-49
2023/12/16 04:53:11;;;;;;;6.47;4.53;;;5.70;92.70;;;7.56;64.06;99909.16;5030287;28;20068;-50
2023/12/16 04:55:39;;;;;;;5.90;3.90;;;5.70;92.90;;;7.58;63.93;99912.56;5030269;28;20045;-51
2023/12/16 04:58:07;;;;;;;6.07;3.40;;;5.70;92.80;;;7.58;63.93;99912.56;5030965;28;20505;-48
2023/12/16 05:00:34;;;;;;;5.17;4.00;;;5.70;92.30;;;7.55;63.73;99909.22;5031449;28;20042;-52
2023/12/16 05:03:03;;;;;;;5.50;3.67;;;5.70;92.20;;;7.53;63.81;99909.31;5031247;28;20041;-51
2023/12/16 05:05:31;;;;;;;5.77;3.87;;;5.60;91.90;;;7.51;64.00;99913.84;5031371;28;20042;-49
2023/12/16 05:07:58;;;;;;;6.83;4.30;;;5.70;92.30;;;7.50;63.96;99920.06;5031257;28;20374;-49
2023/12/16 05:10:26;;;;;;;6.20;3.40;;;5.60;92.20;;;7.49;63.70;99924.53;5031023;28;20068;-49
2023/12/16 05:12:54;;;;;;;7.97;4.00;;;5.60;91.90;;;7.48;63.67;99924.59;5031144;28;20052;-49
2023/12/16 05:15:21;;;;;;;5.50;3.60;;;5.70;92.10;;;7.48;63.67;99927.25;5031249;28;20049;-49
2023/12/16 05:17:49;;;;;;;5.73;3.27;;;5.60;91.80;;;7.45;63.79;99935.41;5030417;28;20052;-50
2023/12/16 05:20:16;;;;;;;4.97;3.30;;;5.60;91.50;;;7.43;63.50;99929.31;5029265;28;20049;-50
2023/12/16 05:22:44;;;;;;;4.17;3.10;;;5.60;91.30;;;7.42;63.56;99928.44;5030841;28;20045;-49
2023/12/16 05:25:11;;;;;;;5.73;3.90;;;5.60;91.60;;;7.41;63.30;99923.25;5030927;28;20057;-49
2023/12/16 05:27:40;;;;;;;5.67;3.57;;;5.50;91.70;;;7.40;63.52;99930.34;5012699;28;20058;-48
2023/12/16 05:30:09;;;;;;;5.20;3.70;;;5.50;91.60;;;7.38;63.54;99928.72;5031014;28;20052;-52
2023/12/16 05:32:37;;;;;;;5.77;3.30;;;5.50;91.40;;;7.33;63.34;99942.22;5029433;28;20045;-51
2023/12/16 05:35:06;;;;;;;6.60;3.13;;;5.50;91.30;;;7.29;63.16;99938.03;5030826;28;20045;-52
2023/12/16 05:37:33;;;;;;;6.30;3.83;;;5.50;91.90;;;7.26;63.48;99941.69;5030583;28;20489;-50
2023/12/16 05:40:01;;;;;;;4.90;3.23;;;5.50;91.90;;;7.24;63.86;99930.34;5030648;28;20041;-50
2023/12/16 05:42:29;;;;;;;6.13;3.60;;;5.40;91.50;;;7.23;63.78;99919.81;5030300;28;20042;-50
2023/12/16 05:44:57;;;;;;;5.00;3.23;;;5.40;91.90;;;7.23;63.82;99919.81;5029669;28;20049;-48
2023/12/16 05:47:25;;;;;;;5.20;3.57;;;5.40;91.50;;;7.22;63.74;99921.63;5030491;28;20045;-52
2023/12/16 05:49:53;;;;;;;5.73;4.57;;;5.40;91.90;;;7.22;64.06;99924.25;5029675;28;20052;-48
2023/12/16 05:52:21;;;;;;;7.67;3.37;;;5.40;91.90;;;7.23;64.06;99933.06;5030195;28;20060;-50
2023/12/16 05:54:49;;;;;;;8.57;3.63;;;5.40;91.50;;;7.24;63.55;99930.34;5030700;28;20049;-51
2023/12/16 05:57:17;;;;;;;4.07;3.03;;;5.40;92.20;;;7.25;63.75;99934.69;5029983;28;20046;-51
2023/12/16 05:59:44;;;;;;;5.50;3.20;;;5.50;91.50;;;7.27;63.33;99926.69;5030443;28;20045;-52
2023/12/16 06:02:12;;;;;;;5.13;3.43;;;5.50;91.40;;;7.26;63.88;99928.44;5031280;28;20049;-50
2023/12/16 06:04:39;;;;;;;9.87;4.37;;;5.40;91.60;;;7.31;63.71;99928.22;5034779;28;20041;-48
2023/12/16 06:07:07;;;;;;;5.13;3.27;;;5.50;91.70;;;7.34;63.59;99921.88;5033228;28;20049;-51
2023/12/16 06:09:35;;;;;;;5.40;3.30;;;5.50;91.30;;;7.35;63.67;99929.75;5034890;28;20068;-50
2023/12/16 06:12:04;;;;;;;4.57;3.90;;;5.50;90.20;;;7.35;63.31;99935.06;5032377;28;20513;-49
2023/12/16 06:14:31;;;;;;;4.63;2.87;;;5.50;90.80;;;7.37;63.24;99932.31;5034198;28;20041;-53
2023/12/16 06:16:59;;;;;;;5.87;3.07;;;5.60;90.20;;;7.39;63.69;99938.41;5034375;28;20044;-52
2023/12/16 06:19:27;;;;;;;8.53;3.90;;;5.60;90.50;;;7.40;63.27;99934.78;5034248;28;20049;-48
2023/12/16 06:21:55;;;;;;;5.07;3.47;;;5.60;90.00;;;7.40;63.53;99938.28;5034226;28;20520;-51
2023/12/16 06:24:23;;;;;;;4.80;3.40;;;5.60;90.10;;;7.41;63.16;99934.72;5034238;28;20056;-53
2023/12/16 06:26:52;;;;;;;7.57;3.97;;;5.60;89.70;;;7.39;63.26;99943.69;5033910;28;20037;-50
2023/12/16 06:29:20;;;;;;;4.47;3.50;;;5.50;90.20;;;7.42;63.61;99951.47;5032766;28;20111;-52
2023/12/16 06:31:48;;;;;;;7.45;4.20;;;5.50;90.10;;;7.42;63.11;99951.47;5034101;28;20413;-50
2023/12/16 06:34:18;;;;;;;6.47;3.13;;;5.60;89.80;;;7.41;63.39;99955.91;5034148;28;20497;-50
2023/12/16 06:36:46;;;;;;;5.67;3.83;;;5.60;89.40;;;7.43;63.43;99956.69;5033927;28;20205;-51
2023/12/16 06:39:14;;;;;;;5.40;3.37;;;5.60;89.50;;;7.40;62.81;99961.28;5034226;28;20045;-48
2023/12/16 06:41:41;;;;;;;4.83;3.70;;;5.60;89.30;;;7.40;62.83;99962.13;5033966;28;20038;-52
2023/12/16 06:44:09;;;;;;;5.27;3.67;;;5.60;89.30;;;7.42;63.17;99962.91;5033684;28;20049;-51
2023/12/16 06:46:37;;;;;;;5.70;3.77;;;5.60;89.00;;;7.40;62.81;99972.72;5033782;28;20053;-50
2023/12/16 06:49:04;;;;;;;4.70;3.20;;;5.60;89.00;;;7.39;62.99;99975.50;5033692;28;20060;-49
2023/12/16 06:51:32;;;;;;;7.37;3.83;;;5.50;89.00;;;7.40;63.18;99971.88;5032139;28;20044;-49
2023/12/16 06:54:00;;;;;;;5.40;3.30;;;5.60;89.20;;;7.42;62.72;99973.50;5034066;28;20409;-50
2023/12/16 06:56:27;;;;;;;5.43;4.10;;;5.60;89.00;;;7.41;62.71;99968.31;5033413;28;20043;-51
2023/12/16 06:58:55;;;;;;;5.67;4.07;;;5.60;89.00;;;7.41;62.92;99974.47;5033963;28;20280;-51
2023/12/16 07:01:23;;;;;;;4.87;3.50;;;5.60;89.00;;;7.41;62.90;99973.63;5033069;28;20045;-52
2023/12/16 07:03:51;;;;;;;4.40;3.03;;;5.60;88.90;;;7.42;62.98;99970.00;5033521;28;20053;-53
2023/12/16 07:06:20;;;;;;;5.27;3.03;;;5.60;88.80;;;7.42;62.98;99973.50;5033432;28;20516;-53
2023/12/16 07:08:47;;;;;;;4.27;3.20;;;5.60;88.20;;;7.39;62.93;99959.59;5032356;28;20044;-53
2023/12/16 07:11:15;;;;;;;6.40;3.60;;;5.50;88.70;;;7.39;62.68;99959.59;5033252;28;20045;-49
2023/12/16 07:13:43;;;;;;;4.90;3.43;;;5.60;89.20;;;7.35;62.64;99973.91;5032425;28;20045;-49
2023/12/16 07:16:14;;;;;;;5.30;3.40;;;5.50;89.00;;;7.35;62.52;99965.97;5033347;28;20050;-51
2023/12/16 07:18:42;;;;;;;5.30;4.13;;;5.50;89.20;;;7.33;62.57;99967.84;5032841;28;20045;-49
2023/12/16 07:21:10;;;;;;;4.57;3.37;;;5.50;89.30;;;7.34;62.54;99969.56;5033005;28;20049;-52
2023/12/16 07:23:37;;;;;;;5.03;3.37;;;5.50;89.50;;;7.32;62.81;99974.97;5033462;28;20226;-47
2023/12/16 07:26:05;;;;;;;6.43;4.00;;;5.50;89.30;;;7.30;62.45;99977.69;5032929;28;20406;-49
2023/12/16 07:28:32;;;;;;;4.80;3.23;;;5.50;89.50;;;7.29;62.58;99978.63;5032412;28;20421;-50
2023/12/16 07:31:00;;;;;;;7.43;3.70;;;5.40;89.00;;;7.29;62.83;99981.28;5031762;28;20057;-49
2023/12/16 07:33:29;;;;;;;5.10;3.63;;;5.40;89.30;;;7.29;62.82;99988.38;5032973;28;20045;-50
2023/12/16 07:35:56;;;;;;;7.33;3.37;;;5.50;89.00;;;7.27;62.43;99977.88;5032954;28;20053;-52
2023/12/16 07:38:24;;;;;;;6.57;3.63;;;5.40;88.80;;;7.25;62.56;99974.44;5032492;28;20041;-50
2023/12/16 07:40:52;;;;;;;4.73;3.30;;;5.40;89.30;;;7.27;62.63;99983.16;5032979;28;20068;-48
2023/12/16 07:43:19;;;;;;;5.30;3.13;;;5.40;88.80;;;7.28;62.36;99987.50;5032770;28;20049;-48
2023/12/16 07:45:47;;;;;;;5.20;3.30;;;5.40;88.90;;;7.27;62.81;99980.53;5031715;28;20057;-51
2023/12/16 07:48:15;;;;;;;5.30;3.50;;;5.40;88.90;;;7.28;62.82;99979.56;5030295;28;20492;-51
2023/12/16 07:50:42;;;;;;;5.27;3.50;;;5.40;89.10;;;7.28;62.33;99995.47;5032748;28;20041;-51
2023/12/16 07:53:10;;;;;;;5.37;3.63;;;5.50;89.90;;;7.28;62.76;99990.16;5032777;28;20163;-49
2023/12/16 07:55:38;;;;;;;5.40;3.80;;;5.40;89.00;;;7.29;62.61;99999.84;5024866;28;20037;-51
2023/12/16 07:58:06;;;;;;;8.17;4.80;;;5.50;89.10;;;7.29;62.42;99996.34;5032537;28;20049;-50
2023/12/16 08:00:34;;;;;;;10.50;5.80;;;5.50;89.20;;;7.29;62.77;100006.94;5032694;28;20458;-49
2023/12/16 08:03:01;;;;;;;10.03;5.20;;;5.40;88.70;;;7.29;62.94;100010.44;5032546;28;20053;-49
2023/12/16 08:05:29;;;;;;;15.23;6.20;;;5.40;89.20;;;7.30;62.87;100016.59;5031410;28;20046;-52
2023/12/16 08:07:57;;;;;;;13.33;7.50;;;5.50;89.30;;;7.31;62.51;100023.59;5031249;28;20060;-49
2023/12/16 08:10:24;;;;;;;11.80;6.17;;;5.50;89.60;;;7.34;62.78;100014.63;5032186;28;20045;-51
2023/12/16 08:12:52;;;;;;;8.20;4.93;;;5.50;89.30;;;7.34;62.92;100022.56;5031748;28;20060;-50
2023/12/16 08:15:20;;;;;;;7.30;3.77;;;5.40;89.30;;;7.33;62.89;100027.03;5032272;28;20048;-53
2023/12/16 08:17:47;;;;;;;6.97;3.73;;;5.50;89.90;;;7.33;63.22;100021.72;5029821;28;20257;-49
2023/12/16 08:20:15;;;;;;;4.97;3.57;;;5.50;90.10;;;7.35;62.96;100026.91;5031740;28;20532;-51
2023/12/16 08:22:43;;;;;;;5.13;3.80;;;5.50;90.70;;;7.40;63.25;100030.19;5032087;28;20048;-54
2023/12/16 08:25:11;;;;;;;6.50;3.63;;;5.60;90.70;;;7.45;63.18;100025.50;5031590;28;20049;-53
2023/12/16 08:27:38;;;;;;;5.80;3.60;;;5.60;90.70;;;7.52;63.28;100026.03;5031232;28;20037;-50
2023/12/16 08:30:07;;;;;;;7.50;5.90;;;5.70;90.50;;;7.54;63.20;100026.78;5032245;28;20045;-49
2023/12/16 08:32:35;;;;;;;7.37;5.17;;;5.70;90.00;;;7.56;63.13;100030.22;5030922;28;20042;-51
2023/12/16 08:35:03;;;;;;;10.43;7.17;;;5.70;90.30;;;7.60;63.23;100029.09;5032612;28;20049;-50
2023/12/16 08:37:31;;;;;;;13.80;10.93;;;5.90;90.50;;;7.65;63.17;100042.97;5031546;28;20117;-51
2023/12/16 08:39:59;;;;;;;10.17;8.97;;;5.90;90.20;;;7.68;63.19;100048.97;5032551;28;20044;-53
2023/12/16 08:42:26;;;;;;;7.93;6.40;;;5.90;90.00;;;7.69;63.21;100047.16;5030749;28;20424;-50
2023/12/16 08:44:54;;;;;;;9.13;5.83;;;6.00;89.50;;;7.71;62.99;100041.78;5031951;28;20524;-51
2023/12/16 08:47:22;;;;;;;43.60;21.93;;;5.90;89.90;;;7.70;63.15;100046.22;5031178;28;20049;-49
2023/12/16 08:49:49;;;;;;;52.60;26.73;;;5.90;89.80;;;7.75;62.99;100045.97;5031018;28;20398;-50
2023/12/16 08:52:17;;;;;;;23.90;14.27;;;6.00;89.90;;;7.79;63.49;100052.81;5031618;28;20069;-52
2023/12/16 08:54:45;;;;;;;18.90;11.17;;;6.00;89.80;;;7.82;63.05;100056.16;5023632;28;20493;-52
2023/12/16 08:57:13;;;;;;;15.17;8.60;;;6.10;88.90;;;7.83;62.93;100060.53;5031090;28;20045;-49
2023/12/16 08:59:40;;;;;;;11.60;8.47;;;6.10;88.90;;;7.88;63.30;100065.56;5031636;28;20045;-51
2023/12/16 09:02:08;;;;;;;11.47;8.27;;;6.10;89.20;;;7.91;63.14;100061.88;5030012;28;20049;-50
2023/12/16 09:04:36;;;;;;;8.07;5.60;;;6.10;88.80;;;7.95;63.05;100059.00;5031353;28;20100;-49
2023/12/16 09:07:04;;;;;;;9.33;5.33;;;6.20;89.10;;;7.98;62.97;100061.47;5029791;28;20049;-50
2023/12/16 09:09:31;;;;;;;7.13;4.70;;;6.20;89.10;;;8.01;62.97;100063.09;5029538;28;20056;-49
2023/12/16 09:11:59;;;;;;;9.40;5.33;;;6.30;89.30;;;8.04;62.90;100068.22;5030179;28;20046;-50
2023/12/16 09:14:27;;;;;;;8.23;4.60;;;6.30;89.30;;;8.06;62.84;100076.94;5030048;28;20045;-49
2023/12/16 09:16:54;;;;;;;20.23;17.23;;;6.30;89.00;;;8.10;62.91;100081.13;5030375;28;20037;-49
2023/12/16 09:19:22;;;;;;;8.17;5.10;;;6.30;88.10;;;8.09;62.99;100082.94;5029526;28;20049;-52
2023/12/16 09:21:50;;;;;;;7.20;5.27;;;6.40;87.90;;;8.12;62.43;100083.72;5028999;28;20041;-51
2023/12/16 09:24:18;;;;;;;8.00;4.50;;;6.30;88.10;;;8.12;62.89;100091.66;5028044;28;20050;-50
2023/12/16 09:26:45;;;;;;;6.70;4.00;;;6.30;88.70;;;8.12;62.91;100091.66;5028437;28;20081;-52
2023/12/16 09:29:13;;;;;;;10.20;4.60;;;6.30;87.70;;;8.14;62.80;100095.94;5027555;28;20080;-53
2023/12/16 09:31:41;;;;;;;6.53;4.07;;;6.40;87.80;;;8.17;62.76;100095.78;5026472;28;20058;-51
2023/12/16 09:34:09;;;;;;;5.33;3.50;;;6.50;87.50;;;8.22;62.71;100098.16;5030832;28;20060;-52
2023/12/16 09:36:37;;;;;;;8.73;4.20;;;6.50;87.40;;;8.26;62.60;100100.56;5029770;28;20042;-52
2023/12/16 09:39:04;;;;;;;6.77;3.63;;;6.60;86.60;;;8.28;62.46;100106.66;5030954;28;20045;-51
2023/12/16 09:41:32;;;;;;;6.40;3.87;;;6.60;86.30;;;8.33;62.56;100106.38;5030818;28;20052;-49
2023/12/16 09:44:00;;;;;;;7.23;5.23;;;6.60;86.20;;;8.33;62.24;100092.25;5031109;28;20048;-52
2023/12/16 09:46:33;;;;;;;9.17;4.47;;;6.60;86.10;;;8.33;62.19;100092.25;5029386;28;20049;-51
2023/12/16 09:49:00;;;;;;;7.20;4.40;;;6.50;85.90;;;8.33;61.89;100097.56;5030811;28;20046;-50
2023/12/16 09:51:29;;;;;;;9.30;7.07;;;6.50;86.00;;;8.31;62.07;100096.81;5029710;28;20050;-52
2023/12/16 09:53:56;;;;;;;10.33;6.47;;;6.50;86.20;;;8.36;62.26;100102.72;5029504;28;20045;-53
2023/12/16 09:56:27;;;;;;;11.00;5.47;;;6.60;86.60;;;8.40;62.06;100096.28;5029133;28;20053;-53
2023/12/16 09:58:56;;;;;;;10.73;6.60;;;6.60;86.40;;;8.40;61.97;100091.81;5029547;28;20133;-53
2023/12/16 10:01:24;;;;;;;10.73;6.17;;;6.60;87.20;;;8.45;62.21;100091.59;5030930;28;20049;-50
2023/12/16 10:03:53;;;;;;;10.40;5.77;;;6.60;87.20;;;8.46;62.35;100091.50;5021833;28;20513;-54
2023/12/16 10:06:21;;;;;;;6.70;4.40;;;6.70;86.80;;;8.49;61.84;100095.78;5029292;28;20049;-52
2023/12/16 10:08:48;;;;;;;5.43;3.50;;;6.70;85.20;;;8.50;61.79;100091.34;5030724;28;20042;-53
2023/12/16 10:11:16;;;;;;;5.77;4.10;;;6.70;84.80;;;8.48;61.84;100092.25;5031013;28;20041;-52
2023/12/16 10:14:05;;;;;;;9.10;4.87;;;6.70;85.30;;;8.47;61.92;100093.22;5030974;28;20511;-50
2023/12/16 10:16:34;;;;;;;5.37;3.47;;;6.70;85.80;;;8.53;61.84;100097.34;5029926;28;20050;-52
2023/12/16 10:19:01;;;;;;;5.73;3.93;;;6.70;85.00;;;8.49;61.45;100085.16;5031501;28;20049;-53
2023/12/16 10:21:32;;;;;;;6.23;3.30;;;6.70;83.40;;;8.50;61.12;100078.91;5030162;28;20060;-52
2023/12/16 10:24:01;;;;;;;4.90;3.07;;;6.70;83.30;;;8.52;61.16;100079.69;5029354;28;20037;-52
2023/12/16 10:26:30;;;;;;;5.23;3.43;;;6.70;83.10;;;8.53;60.95;100077.88;5030155;28;20041;-52
2023/12/16 10:29:04;;;;;;;4.67;3.50;;;6.70;82.70;;;8.55;60.85;100075.97;5030536;28;20052;-48
2023/12/16 10:31:35;;;;;;;7.28;4.35;;;6.80;83.00;;;8.58;61.01;100070.50;5030437;28;20046;-52
2023/12/16 10:34:03;;;;;;;8.07;3.50;;;6.80;82.80;;;8.62;60.97;100074.69;5029066;28;20065;-49